Time;durP1;ratioP1;P1;durP2;ratioP2;P2;SDS_P1;SDS_P2;PMS_P1;PMS_P2;Temp;Humidity;BMP_temperature;BMP_pressure;BME280_temperature;BME280_humidity;BME280_pressure;Samples;Min_cycle;Max_cycle;Signal;HPM_P1;HPM_P2
2023/06/05 00:01:29;;;;;;;2.23;0.90;;;24.70;71.60;;;;;;6192957;23;20173;-95
2023/06/05 00:04:02;;;;;;;3.13;0.60;;;24.40;73.10;;;;;;6193850;23;20177;-96
2023/06/05 00:06:37;;;;;;;1.77;1.10;;;24.40;71.20;;;;;;6196280;23;20183;-95
2023/06/05 00:09:08;;;;;;;2.80;0.70;;;24.30;71.60;;;;;;6201494;23;20184;-96
2023/06/05 00:11:40;;;;;;;1.53;0.80;;;24.10;69.90;;;;;;6197985;23;20253;-96
2023/06/05 00:14:13;;;;;;;2.83;0.83;;;24.20;71.50;;;;;;6203159;23;20188;-94
2023/06/05 00:16:51;;;;;;;2.60;0.70;;;24.20;70.10;;;;;;6206143;23;20169;-95
2023/06/05 00:19:23;;;;;;;2.73;0.80;;;23.80;69.50;;;;;;6201594;23;20229;-96
2023/06/05 00:21:57;;;;;;;2.30;0.70;;;23.60;68.80;;;;;;6201006;23;20184;-94
2023/06/05 00:24:28;;;;;;;1.80;0.90;;;23.70;70.30;;;;;;6201131;23;20233;-95
2023/06/05 00:27:00;;;;;;;1.43;0.77;;;23.70;68.70;;;;;;6196139;23;20196;-95
2023/06/05 00:29:31;;;;;;;4.87;0.80;;;23.60;67.10;;;;;;6193810;23;20212;-91
2023/06/05 00:32:04;;;;;;;2.17;0.63;;;23.40;67.80;;;;;;6195203;23;20222;-95
2023/06/05 00:34:35;;;;;;;0.93;0.60;;;23.30;67.30;;;;;;6195026;23;20245;-96
2023/06/05 00:37:20;;;;;;;1.13;0.80;;;23.20;69.90;;;;;;6195044;23;20558;-95
2023/06/05 00:39:57;;;;;;;2.43;0.77;;;23.10;69.30;;;;;;6196220;23;20177;-95
2023/06/05 00:42:31;;;;;;;1.13;0.70;;;23.00;68.20;;;;;;6174110;23;20177;-96
2023/06/05 00:45:16;;;;;;;1.63;0.60;;;22.60;69.20;;;;;;6193909;23;20177;-96
2023/06/05 00:47:50;;;;;;;1.47;0.67;;;22.40;69.00;;;;;;6197273;23;20281;-94
2023/06/05 00:50:37;;;;;;;4.93;1.00;;;22.60;69.50;;;;;;6195004;23;20184;-95
2023/06/05 00:53:12;;;;;;;1.47;0.70;;;23.20;70.80;;;;;;6204452;23;20161;-96
2023/06/05 00:55:44;;;;;;;2.97;0.90;;;23.60;69.60;;;;;;6212055;23;20164;-96
2023/06/05 00:58:17;;;;;;;4.60;0.70;;;24.00;68.60;;;;;;6211386;23;20196;-96
2023/06/05 01:03:50;;;;;;;4.37;0.70;;;23.90;67.50;;;;;;6196350;23;20495;-96
2023/06/05 01:06:23;;;;;;;5.40;0.90;;;23.90;67.50;;;;;;6193290;23;20176;-95
2023/06/05 01:08:59;;;;;;;3.30;0.90;;;23.80;67.90;;;;;;6191854;23;20232;-95
2023/06/05 01:11:40;;;;;;;2.63;1.07;;;23.80;68.90;;;;;;6194166;23;20256;-95
2023/06/05 01:14:23;;;;;;;5.37;1.03;;;24.10;66.50;;;;;;6194955;23;20248;-95
2023/06/05 01:16:57;;;;;;;2.60;0.70;;;23.80;67.70;;;;;;6193063;23;20181;-96
2023/06/05 01:19:31;;;;;;;4.90;0.70;;;24.20;67.00;;;;;;6193935;23;20183;-95
2023/06/05 01:22:15;;;;;;;3.63;1.00;;;24.30;68.00;;;;;;6195932;23;20201;-95
2023/06/05 01:24:59;;;;;;;3.63;0.80;;;24.50;67.30;;;;;;6195033;23;20189;-96
2023/06/05 01:27:42;;;;;;;2.73;1.00;;;24.20;67.10;;;;;;6192847;23;20268;-96
2023/06/05 01:30:28;;;;;;;1.97;1.10;;;24.20;67.80;;;;;;6192850;23;20245;-94
2023/06/05 01:33:05;;;;;;;1.53;0.77;;;24.00;66.70;;;;;;6193661;23;20173;-96
2023/06/05 01:36:22;;;;;;;1.53;0.93;;;24.40;68.10;;;;;;6199986;23;20176;-96
2023/06/05 01:39:04;;;;;;;3.43;0.73;;;24.50;67.70;;;;;;6191565;23;20241;-96
2023/06/05 01:41:39;;;;;;;3.90;0.97;;;24.40;67.30;;;;;;6194762;23;20236;-95
2023/06/05 01:44:14;;;;;;;2.30;0.97;;;24.70;65.60;;;;;;6196957;23;20176;-96
2023/06/05 01:46:48;;;;;;;1.63;0.73;;;24.40;65.60;;;;;;6195577;23;20192;-96
2023/06/05 01:49:33;;;;;;;6.10;1.03;;;24.50;66.10;;;;;;6191331;23;20280;-96
2023/06/05 01:52:05;;;;;;;2.93;0.90;;;24.40;66.10;;;;;;6193359;23;20201;-95
2023/06/05 01:54:38;;;;;;;1.83;1.00;;;24.10;66.10;;;;;;6198196;23;20172;-96
2023/06/05 01:57:13;;;;;;;5.03;0.70;;;24.30;66.50;;;;;;6197536;23;20184;-96
2023/06/05 01:59:45;;;;;;;3.27;0.90;;;24.00;66.10;;;;;;6204870;23;20172;-96
2023/06/05 02:02:18;;;;;;;2.43;0.63;;;23.50;66.50;;;;;;6209881;23;20177;-95
2023/06/05 02:04:53;;;;;;;3.27;1.20;;;22.90;67.40;;;;;;6209653;23;20245;-96
2023/06/05 02:07:26;;;;;;;1.70;0.83;;;22.00;67.30;;;;;;6205151;23;20184;-96
2023/06/05 02:10:02;;;;;;;1.50;0.80;;;21.40;68.30;;;;;;6194829;23;20488;-96
2023/06/05 02:12:37;;;;;;;3.57;0.90;;;21.10;68.80;;;;;;6196078;23;20180;-96
2023/06/05 02:15:12;;;;;;;1.93;0.90;;;20.70;70.10;;;;;;6195928;23;20195;-96
2023/06/05 02:17:50;;;;;;;2.63;1.10;;;20.60;71.20;;;;;;6193849;23;20239;-94
2023/06/05 02:20:23;;;;;;;5.10;1.30;;;20.40;72.80;;;;;;6196726;23;20204;-96
2023/06/05 02:22:55;;;;;;;2.10;0.90;;;20.20;72.50;;;;;;6196148;23;20293;-96
2023/06/05 02:25:28;;;;;;;2.00;1.00;;;20.00;72.70;;;;;;6195679;23;20172;-96
2023/06/05 02:28:02;;;;;;;3.03;0.87;;;19.90;73.80;;;;;;6193358;23;20239;-96
2023/06/05 02:30:34;;;;;;;2.03;0.70;;;19.80;73.90;;;;;;6192074;23;20233;-96
2023/06/05 02:33:05;;;;;;;2.03;0.90;;;19.50;74.80;;;;;;6194994;23;20176;-95
2023/06/05 02:35:39;;;;;;;1.87;1.00;;;19.20;74.70;;;;;;6193798;23;20184;-96
2023/06/05 02:38:12;;;;;;;1.80;0.87;;;18.90;74.60;;;;;;6190004;23;20181;-96
2023/06/05 02:40:44;;;;;;;2.50;1.00;;;18.60;74.40;;;;;;6188385;23;20193;-96
2023/06/05 02:43:18;;;;;;;2.70;0.77;;;18.40;74.70;;;;;;6191262;23;20185;-96
2023/06/05 02:45:50;;;;;;;1.80;0.80;;;18.30;75.60;;;;;;6189166;23;20184;-96
2023/06/05 02:48:23;;;;;;;2.90;0.90;;;18.20;76.30;;;;;;6188811;23;20193;-96
2023/06/05 02:50:59;;;;;;;2.57;0.70;;;18.00;76.30;;;;;;6190963;23;20197;-96
2023/06/05 02:53:32;;;;;;;2.30;1.33;;;17.90;76.30;;;;;;6191316;23;20243;-96
2023/06/05 02:56:06;;;;;;;4.00;0.97;;;17.70;77.50;;;;;;6190023;23;20192;-96
2023/06/05 02:58:45;;;;;;;3.60;0.90;;;17.60;77.60;;;;;;6190827;23;20204;-96
2023/06/05 03:01:18;;;;;;;2.63;0.93;;;17.50;78.20;;;;;;6193427;23;20185;-96
2023/06/05 03:06:38;;;;;;;2.67;0.73;;;17.30;79.40;;;;;;6210749;23;20236;-92
2023/06/05 03:09:14;;;;;;;3.00;1.00;;;17.20;79.40;;;;;;6120104;23;20215;-95
2023/06/05 03:11:48;;;;;;;2.83;1.00;;;17.10;80.20;;;;;;6178637;23;20214;-96
2023/06/05 03:14:27;;;;;;;3.07;0.73;;;17.00;81.30;;;;;;6167218;23;20196;-95
2023/06/05 03:17:00;;;;;;;1.40;0.70;;;16.90;81.70;;;;;;6163528;23;20170;-94
2023/06/05 03:19:32;;;;;;;4.27;1.17;;;16.80;82.50;;;;;;6161439;23;20184;-96
2023/06/05 03:22:05;;;;;;;1.73;0.80;;;16.70;82.90;;;;;;6159762;23;20173;-95
2023/06/05 03:24:39;;;;;;;5.07;1.60;;;16.60;84.40;;;;;;6159439;23;20334;-96
2023/06/05 03:27:15;;;;;;;8.70;3.97;;;16.50;85.30;;;;;;6158229;23;20625;-96
2023/06/05 03:29:51;;;;;;;3.77;1.60;;;16.40;97.90;;;;;;6158001;23;20208;-96
2023/06/05 03:32:24;;;;;;;1.13;0.73;;;16.10;97.20;;;;;;6159607;23;20173;-96
2023/06/05 03:37:46;;;;;;;2.70;1.00;;;15.90;95.40;;;;;;6158221;23;20184;-95
2023/06/05 03:40:18;;;;;;;2.60;1.10;;;15.80;93.10;;;;;;6158836;23;20233;-95
2023/06/05 03:42:49;;;;;;;2.97;0.90;;;15.70;93.00;;;;;;6156249;23;20180;-95
2023/06/05 03:45:27;;;;;;;3.43;1.07;;;15.70;93.20;;;;;;6167333;23;20178;-95
2023/06/05 03:48:01;;;;;;;2.77;0.87;;;15.50;93.10;;;;;;6163589;23;20174;-95
2023/06/05 03:50:37;;;;;;;4.93;1.10;;;15.40;93.10;;;;;;6160353;23;20292;-94
2023/06/05 03:53:22;;;;;;;2.50;1.47;;;15.40;93.60;;;;;;6167824;23;20169;-95
2023/06/05 03:55:55;;;;;;;4.60;1.00;;;15.30;93.60;;;;;;6161857;23;20224;-95
2023/06/05 03:58:26;;;;;;;2.67;1.00;;;15.20;93.20;;;;;;6159362;23;20578;-95
2023/06/05 04:01:00;;;;;;;3.13;0.90;;;15.20;94.20;;;;;;6160529;23;20566;-95
2023/06/05 04:03:36;;;;;;;1.57;0.87;;;15.00;94.10;;;;;;6162629;23;20177;-95
2023/06/05 04:06:09;;;;;;;1.67;0.80;;;15.00;94.30;;;;;;6160843;23;20165;-95
2023/06/05 04:08:43;;;;;;;4.63;1.10;;;15.00;94.10;;;;;;6164475;23;20225;-96
2023/06/05 04:11:16;;;;;;;4.07;0.80;;;14.90;95.40;;;;;;6164245;23;20196;-96
2023/06/05 04:13:47;;;;;;;3.93;1.07;;;14.80;95.20;;;;;;6163098;23;20178;-94
2023/06/05 04:16:26;;;;;;;2.37;0.80;;;14.80;95.00;;;;;;6162972;23;20174;-96
2023/06/05 04:19:09;;;;;;;2.93;1.10;;;14.70;95.10;;;;;;6165341;23;20240;-96
2023/06/05 04:21:44;;;;;;;1.80;0.73;;;14.60;96.00;;;;;;6171132;23;20177;-96
2023/06/05 04:24:17;;;;;;;3.37;1.20;;;14.60;96.40;;;;;;6162331;23;20177;-96
2023/06/05 04:26:52;;;;;;;3.30;0.80;;;14.50;96.30;;;;;;6164906;23;20188;-94
2023/06/05 04:29:24;;;;;;;4.17;1.20;;;14.40;96.70;;;;;;6174869;23;20177;-95
2023/06/05 04:31:58;;;;;;;4.10;0.83;;;14.40;96.50;;;;;;6163973;23;20511;-96
2023/06/05 04:34:31;;;;;;;4.67;1.10;;;14.20;97.70;;;;;;6166139;23;20525;-93
2023/06/05 04:37:06;;;;;;;2.73;0.93;;;14.20;98.30;;;;;;6169511;23;20154;-95
2023/06/05 04:42:19;;;;;;;6.90;1.20;;;14.10;99.10;;;;;;6151308;23;20205;-96
2023/06/05 04:45:00;;;;;;;3.07;1.00;;;14.00;99.90;;;;;;6133481;23;20166;-96
2023/06/05 04:47:37;;;;;;;2.80;1.07;;;13.90;99.90;;;;;;6130294;23;20226;-96
2023/06/05 04:50:10;;;;;;;5.00;1.60;;;13.90;99.90;;;;;;6129253;23;20723;-96
2023/06/05 04:52:43;;;;;;;4.03;1.07;;;13.90;99.90;;;;;;6131650;23;20178;-96
2023/06/05 04:55:14;;;;;;;5.87;1.23;;;13.80;99.90;;;;;;6130624;23;20182;-96
2023/06/05 04:57:49;;;;;;;3.17;1.30;;;13.70;99.90;;;;;;6129986;23;20181;-96
2023/06/05 05:00:23;;;;;;;3.13;1.33;;;13.60;99.90;;;;;;6131669;23;20184;-95
2023/06/05 05:02:59;;;;;;;2.17;1.30;;;13.60;99.90;;;;;;6132961;23;20182;-96
2023/06/05 05:05:31;;;;;;;4.20;1.30;;;13.50;99.90;;;;;;6132794;23;20193;-96
2023/06/05 05:08:05;;;;;;;7.03;1.10;;;13.40;99.90;;;;;;6133668;23;20175;-96
2023/06/05 05:10:39;;;;;;;3.63;1.60;;;13.40;99.90;;;;;;6135222;23;20194;-96
2023/06/05 05:13:11;;;;;;;4.90;1.13;;;13.40;99.90;;;;;;6138379;23;20171;-96
2023/06/05 05:15:44;;;;;;;5.80;1.80;;;13.30;99.90;;;;;;6153297;23;20226;-96
2023/06/05 05:18:23;;;;;;;3.40;1.07;;;13.20;99.90;;;;;;6151804;23;20180;-96
2023/06/05 05:23:39;;;;;;;11.47;1.80;;;13.10;99.90;;;;;;6124010;23;20226;-96
2023/06/05 05:26:14;;;;;;;6.33;2.03;;;13.10;99.90;;;;;;6133941;23;20190;-96
2023/06/05 05:28:45;;;;;;;6.90;2.10;;;13.00;99.90;;;;;;6131486;23;20173;-96
2023/06/05 05:31:18;;;;;;;6.20;1.87;;;13.00;99.90;;;;;;6133118;23;20289;-96
2023/06/05 05:33:52;;;;;;;3.53;1.60;;;12.80;99.90;;;;;;6131055;23;20237;-95
2023/06/05 05:36:26;;;;;;;5.37;1.50;;;12.80;99.90;;;;;;6131740;23;20636;-96
2023/06/05 05:38:57;;;;;;;6.30;1.33;;;12.80;99.90;;;;;;6130790;23;20178;-96
2023/06/05 05:41:31;;;;;;;5.27;1.63;;;12.70;99.90;;;;;;6132480;23;20171;-94
2023/06/05 05:44:03;;;;;;;6.27;1.80;;;12.60;99.90;;;;;;6132808;23;20189;-94
2023/06/05 05:46:35;;;;;;;5.17;1.50;;;12.60;99.90;;;;;;6133319;23;20198;-96
2023/06/05 05:49:11;;;;;;;4.73;1.40;;;12.60;99.90;;;;;;6131767;23;20266;-95
2023/06/05 05:51:43;;;;;;;5.17;1.43;;;12.60;99.90;;;;;;6133137;23;20171;-96
2023/06/05 05:54:15;;;;;;;4.90;1.40;;;12.50;99.90;;;;;;6130519;23;20633;-96
2023/06/05 05:56:48;;;;;;;5.80;1.40;;;12.40;99.90;;;;;;6106549;23;20174;-96
2023/06/05 05:59:20;;;;;;;6.17;1.27;;;12.40;99.90;;;;;;6128286;23;20178;-96
2023/06/05 06:01:52;;;;;;;6.43;1.80;;;12.40;99.90;;;;;;6131158;23;20512;-95
2023/06/05 06:04:29;;;;;;;4.90;1.20;;;12.30;99.90;;;;;;6129889;23;20249;-96
2023/06/05 06:07:01;;;;;;;7.63;1.67;;;12.30;99.90;;;;;;6105349;23;20178;-96
2023/06/05 06:09:35;;;;;;;5.17;1.30;;;12.20;99.90;;;;;;6128406;23;20178;-96
2023/06/05 06:12:08;;;;;;;6.17;1.77;;;12.10;99.90;;;;;;6135660;23;20174;-95
2023/06/05 06:14:41;;;;;;;6.17;1.70;;;12.10;99.90;;;;;;6105029;23;20249;-96
2023/06/05 06:17:12;;;;;;;5.67;1.73;;;12.10;99.90;;;;;;6132129;23;20185;-95
2023/06/05 06:19:48;;;;;;;7.13;1.93;;;12.00;99.90;;;;;;6131084;23;20174;-96
2023/06/05 06:22:20;;;;;;;8.23;1.80;;;11.90;99.90;;;;;;6133771;23;20173;-96
2023/06/05 06:24:52;;;;;;;6.40;1.80;;;11.90;99.90;;;;;;6131886;23;20669;-96
2023/06/05 06:27:24;;;;;;;7.57;2.47;;;11.90;99.90;;;;;;6133936;23;20599;-95
2023/06/05 06:30:07;;;;;;;4.30;1.23;;;11.80;99.90;;;;;;6130975;23;20194;-96
2023/06/05 06:32:41;;;;;;;6.40;2.07;;;11.80;99.90;;;;;;6131905;23;20170;-95
2023/06/05 06:35:20;;;;;;;6.33;1.67;;;11.70;99.90;;;;;;6129181;23;20178;-95
2023/06/05 06:37:54;;;;;;;10.30;2.10;;;11.60;99.90;;;;;;6129782;23;20261;-96
2023/06/05 06:40:28;;;;;;;6.07;1.80;;;11.60;99.90;;;;;;6129894;23;20532;-94
2023/06/05 06:43:01;;;;;;;10.80;2.20;;;11.50;99.90;;;;;;6129356;23;20178;-96
2023/06/05 06:45:33;;;;;;;4.57;1.93;;;11.60;99.90;;;;;;6129264;23;20198;-96
2023/06/05 06:48:07;;;;;;;6.70;2.07;;;11.50;99.90;;;;;;6131169;23;20600;-96
2023/06/05 06:50:43;;;;;;;9.93;1.90;;;11.50;99.90;;;;;;6131608;23;20206;-96
2023/06/05 06:53:15;;;;;;;7.33;1.93;;;11.50;99.90;;;;;;6130981;23;20182;-96
2023/06/05 06:55:47;;;;;;;10.53;1.80;;;11.40;99.90;;;;;;6132465;23;20230;-96
2023/06/05 06:58:22;;;;;;;6.47;1.90;;;11.30;99.90;;;;;;6130740;23;20167;-96
2023/06/05 07:00:57;;;;;;;7.40;1.77;;;11.30;99.90;;;;;;6133607;23;20166;-95
2023/06/05 07:03:29;;;;;;;7.27;1.97;;;11.30;99.90;;;;;;6138451;23;20210;-96
2023/06/05 07:06:03;;;;;;;10.13;2.03;;;11.30;99.90;;;;;;6109836;23;20186;-96
2023/06/05 07:08:35;;;;;;;6.13;1.40;;;11.30;99.90;;;;;;6131512;23;20201;-96
2023/06/05 07:11:07;;;;;;;7.03;1.63;;;11.30;99.90;;;;;;6132759;23;20305;-96
2023/06/05 07:13:40;;;;;;;8.57;1.83;;;11.20;99.90;;;;;;6108318;23;20178;-96
2023/06/05 07:16:11;;;;;;;7.50;2.00;;;11.20;99.90;;;;;;6132823;23;20197;-94
2023/06/05 07:18:44;;;;;;;7.63;1.80;;;11.20;99.90;;;;;;6129911;23;20190;-94
2023/06/05 07:21:19;;;;;;;5.03;1.80;;;11.10;99.90;;;;;;6131387;23;20171;-94
2023/06/05 07:23:53;;;;;;;8.93;1.47;;;11.00;99.90;;;;;;6141940;23;20229;-95
2023/06/05 07:26:25;;;;;;;6.97;1.87;;;11.10;99.90;;;;;;6152223;23;20181;-95
2023/06/05 07:28:59;;;;;;;7.13;1.87;;;11.10;99.90;;;;;;6152719;23;20181;-96
2023/06/05 07:31:31;;;;;;;8.60;2.07;;;11.00;99.90;;;;;;6143372;23;20201;-96
2023/06/05 07:34:06;;;;;;;8.97;2.00;;;10.90;99.90;;;;;;6148357;23;20201;-95
2023/06/05 07:36:41;;;;;;;11.80;1.80;;;10.90;99.90;;;;;;6152667;23;20238;-94
2023/06/05 07:39:13;;;;;;;8.13;1.80;;;10.90;99.90;;;;;;6149986;23;20182;-94
2023/06/05 07:41:46;;;;;;;8.73;2.73;;;11.00;99.90;;;;;;6120590;23;20193;-96
2023/06/05 07:44:21;;;;;;;9.30;2.07;;;10.90;99.90;;;;;;6122080;23;20194;-95
2023/06/05 07:46:53;;;;;;;9.77;1.63;;;10.80;99.90;;;;;;6141747;23;20625;-96
2023/06/05 07:49:26;;;;;;;6.20;1.80;;;10.80;99.90;;;;;;6133759;23;20250;-96
2023/06/05 07:52:01;;;;;;;8.37;1.70;;;10.80;99.90;;;;;;6135005;23;20684;-96
2023/06/05 07:54:34;;;;;;;9.57;1.80;;;10.70;99.90;;;;;;6133536;23;20178;-96
2023/06/05 07:57:10;;;;;;;10.17;2.17;;;10.70;99.90;;;;;;6108698;23;20174;-96
2023/06/05 07:59:46;;;;;;;6.63;1.70;;;10.60;99.90;;;;;;6133049;23;20175;-96
2023/06/05 08:02:19;;;;;;;8.50;1.70;;;10.60;99.90;;;;;;6108467;23;20245;-96
2023/06/05 08:04:52;;;;;;;9.70;2.43;;;10.60;99.90;;;;;;6132072;23;20230;-96
2023/06/05 08:07:28;;;;;;;7.50;1.80;;;10.60;99.90;;;;;;6133791;23;20238;-96
2023/06/05 08:10:01;;;;;;;6.07;1.40;;;10.50;99.90;;;;;;6132792;23;20208;-96
2023/06/05 08:12:34;;;;;;;9.67;1.77;;;10.50;99.90;;;;;;6107224;23;20306;-96
2023/06/05 08:15:08;;;;;;;7.03;2.10;;;10.50;99.90;;;;;;6133646;23;20178;-95
2023/06/05 08:17:41;;;;;;;6.53;1.63;;;10.50;99.90;;;;;;6133318;23;20193;-94
2023/06/05 08:20:14;;;;;;;5.33;1.67;;;10.50;99.90;;;;;;6132867;23;20181;-94
2023/06/05 08:22:47;;;;;;;11.30;2.20;;;10.50;99.90;;;;;;6116100;23;20192;-95
2023/06/05 08:25:20;;;;;;;9.53;1.90;;;10.50;99.90;;;;;;6161090;23;20178;-95
2023/06/05 08:27:53;;;;;;;11.33;1.90;;;10.50;99.90;;;;;;6159956;23;20170;-94
2023/06/05 08:30:25;;;;;;;9.60;2.10;;;10.50;99.90;;;;;;6159131;23;20265;-94
2023/06/05 08:32:57;;;;;;;8.03;1.67;;;10.50;99.90;;;;;;6161672;23;20198;-95
2023/06/05 08:35:29;;;;;;;4.90;1.60;;;10.50;99.90;;;;;;6161609;23;20540;-94
2023/06/05 08:38:05;;;;;;;10.23;2.30;;;10.50;99.90;;;;;;6160190;23;20184;-96
2023/06/05 08:40:39;;;;;;;6.67;1.60;;;10.40;99.90;;;;;;6161560;23;20479;-96
2023/06/05 08:43:13;;;;;;;9.07;1.80;;;10.40;99.90;;;;;;6161439;23;20177;-95
2023/06/05 08:45:46;;;;;;;10.30;1.97;;;10.30;99.90;;;;;;6160710;23;20174;-95
2023/06/05 08:48:21;;;;;;;8.23;1.70;;;10.30;99.90;;;;;;6158092;23;20271;-96
2023/06/05 08:50:54;;;;;;;9.07;1.67;;;10.20;99.90;;;;;;6159977;23;20165;-96
2023/06/05 08:53:35;;;;;;;8.50;2.07;;;10.20;99.90;;;;;;6161997;23;20193;-96
2023/06/05 08:56:09;;;;;;;10.40;1.90;;;10.20;99.90;;;;;;6160438;23;20173;-96
2023/06/05 08:58:44;;;;;;;8.57;2.00;;;10.10;99.90;;;;;;6161286;23;20181;-96
2023/06/05 09:01:16;;;;;;;7.37;2.23;;;10.20;99.90;;;;;;6163144;23;20176;-96
2023/06/05 09:03:48;;;;;;;7.07;2.20;;;10.20;99.90;;;;;;6162377;23;20509;-96
2023/06/05 09:06:22;;;;;;;11.33;1.67;;;10.20;99.90;;;;;;6161855;23;20212;-96
2023/06/05 09:09:01;;;;;;;7.10;1.70;;;10.10;99.90;;;;;;6136684;23;20205;-96
2023/06/05 09:11:36;;;;;;;6.23;1.90;;;10.10;99.90;;;;;;6162607;23;20707;-96
2023/06/05 09:14:08;;;;;;;6.60;1.67;;;10.20;99.90;;;;;;6162056;23;20266;-95
2023/06/05 09:16:42;;;;;;;8.17;2.67;;;10.20;99.90;;;;;;6160743;23;20170;-96
2023/06/05 09:19:15;;;;;;;4.50;1.50;;;10.20;99.90;;;;;;6162478;23;20186;-96
2023/06/05 09:21:55;;;;;;;6.33;1.50;;;10.10;99.90;;;;;;6165732;23;20260;-96
2023/06/05 09:24:30;;;;;;;7.23;1.67;;;9.90;99.90;;;;;;6134255;23;20304;-96
2023/06/05 09:27:08;;;;;;;8.43;1.93;;;9.90;99.90;;;;;;6133427;23;20185;-96
2023/06/05 09:29:43;;;;;;;6.60;1.67;;;9.80;99.90;;;;;;6131285;23;20213;-96
2023/06/05 09:32:23;;;;;;;8.67;2.00;;;9.80;99.90;;;;;;6110870;23;20206;-95
2023/06/05 09:35:00;;;;;;;7.43;2.10;;;9.90;99.90;;;;;;6148990;23;20241;-96
2023/06/05 09:37:36;;;;;;;7.80;1.90;;;9.80;99.90;;;;;;6148999;23;20181;-96
2023/06/05 09:40:14;;;;;;;5.97;1.70;;;9.80;99.90;;;;;;6138833;23;20206;-93
2023/06/05 09:42:46;;;;;;;8.87;1.43;;;9.70;99.90;;;;;;6136487;23;20644;-94
2023/06/05 09:45:20;;;;;;;7.93;2.10;;;9.70;99.90;;;;;;6134105;23;20181;-96
2023/06/05 09:47:54;;;;;;;9.97;2.27;;;9.70;99.90;;;;;;6105401;23;20185;-95
2023/06/05 09:50:27;;;;;;;7.00;1.80;;;9.70;99.90;;;;;;6130133;23;20186;-96
2023/06/05 09:53:00;;;;;;;7.07;1.83;;;9.80;99.90;;;;;;6131047;23;20249;-96
2023/06/05 09:55:35;;;;;;;11.80;1.87;;;9.80;99.90;;;;;;6130481;23;20718;-96
2023/06/05 09:58:13;;;;;;;7.77;1.67;;;9.80;99.90;;;;;;6131038;23;20181;-96
2023/06/05 10:00:46;;;;;;;6.60;1.67;;;9.70;99.90;;;;;;6131734;23;20208;-96
2023/06/05 10:03:22;;;;;;;10.07;2.00;;;9.80;99.90;;;;;;6131239;23;20174;-95
2023/06/05 10:05:54;;;;;;;7.47;2.10;;;9.80;99.90;;;;;;6131629;23;20245;-96
2023/06/05 10:08:32;;;;;;;8.33;1.87;;;9.80;99.90;;;;;;6131743;23;20184;-96
2023/06/05 10:11:10;;;;;;;7.20;1.67;;;9.80;99.90;;;;;;6131949;23;20174;-96
2023/06/05 10:13:42;;;;;;;8.33;2.10;;;9.80;99.90;;;;;;6131787;23;20288;-96
2023/06/05 10:16:20;;;;;;;7.17;1.80;;;9.80;99.90;;;;;;6134225;23;20209;-96
2023/06/05 10:19:02;;;;;;;7.70;1.87;;;9.70;99.90;;;;;;6135089;23;20171;-96
2023/06/05 10:21:37;;;;;;;16.10;2.50;;;9.70;99.90;;;;;;6130664;23;20178;-96
2023/06/05 10:24:13;;;;;;;10.80;2.37;;;9.70;99.90;;;;;;6130236;23;20186;-96
2023/06/05 10:27:23;;;;;;;7.73;1.87;;;9.70;99.90;;;;;;6106085;23;20261;-96
2023/06/05 10:30:16;;;;;;;5.97;2.00;;;9.60;99.90;;;;;;6129757;23;20185;-95
2023/06/05 10:33:03;;;;;;;9.90;2.07;;;9.60;99.90;;;;;;6130702;23;20605;-95
2023/06/05 10:35:51;;;;;;;8.83;2.13;;;9.60;99.90;;;;;;6129549;23;20257;-96
2023/06/05 10:38:25;;;;;;;9.83;2.00;;;9.60;99.90;;;;;;6129037;23;20183;-96
2023/06/05 10:40:59;;;;;;;9.47;2.13;;;9.50;99.90;;;;;;6105353;23;20485;-94
2023/06/05 10:43:47;;;;;;;5.83;1.63;;;9.40;99.90;;;;;;6105643;23;20170;-95
2023/06/05 10:46:36;;;;;;;9.63;2.00;;;9.40;99.90;;;;;;6128867;23;20186;-96
2023/06/05 10:49:19;;;;;;;9.07;2.00;;;9.40;99.90;;;;;;6129215;23;20182;-95
2023/06/05 10:51:53;;;;;;;13.43;2.03;;;9.30;99.90;;;;;;6129236;23;20570;-96
2023/06/05 10:54:56;;;;;;;7.23;1.60;;;9.30;99.90;;;;;;6129607;23;20237;-96
2023/06/05 10:57:28;;;;;;;9.73;1.97;;;9.20;99.90;;;;;;6129880;23;20570;-95
2023/06/05 11:00:11;;;;;;;8.97;1.93;;;9.20;99.90;;;;;;6130283;23;20190;-93
2023/06/05 11:02:51;;;;;;;10.93;2.10;;;9.10;99.90;;;;;;6133709;23;20274;-94
2023/06/05 11:05:27;;;;;;;7.97;1.70;;;9.00;99.90;;;;;;6137146;23;20193;-96
2023/06/05 11:08:18;;;;;;;8.63;2.00;;;9.00;99.90;;;;;;6110403;23;20257;-96
2023/06/05 11:11:09;;;;;;;5.63;1.67;;;9.00;99.90;;;;;;6133835;23;20198;-96
2023/06/05 11:13:57;;;;;;;10.53;2.40;;;8.90;99.90;;;;;;6132818;23;20677;-96
2023/06/05 11:16:31;;;;;;;11.70;2.30;;;8.80;99.90;;;;;;6133311;23;20175;-96
2023/06/05 11:19:38;;;;;;;10.30;2.30;;;8.80;99.90;;;;;;6134443;23;20189;-96
2023/06/05 11:22:11;;;;;;;7.37;2.13;;;8.80;99.90;;;;;;6133118;23;20185;-96
2023/06/05 11:24:45;;;;;;;10.43;2.30;;;8.80;99.90;;;;;;6133060;23;20508;-96
2023/06/05 11:27:51;;;;;;;8.53;2.23;;;8.80;99.90;;;;;;6133153;23;20233;-96
2023/06/05 11:30:24;;;;;;;9.57;1.93;;;8.80;99.90;;;;;;6134104;23;20178;-95
2023/06/05 11:33:19;;;;;;;9.33;2.00;;;8.80;99.90;;;;;;6132179;23;20618;-96
2023/06/05 11:35:52;;;;;;;12.63;2.10;;;8.70;99.90;;;;;;6131907;23;20180;-96
2023/06/05 11:38:26;;;;;;;6.73;2.03;;;8.80;99.90;;;;;;6132634;23;20182;-95
2023/06/05 11:40:58;;;;;;;8.27;2.13;;;8.70;99.90;;;;;;6139729;23;20168;-95
2023/06/05 11:43:30;;;;;;;12.77;2.30;;;8.70;99.90;;;;;;6152808;23;20173;-94
2023/06/05 11:46:03;;;;;;;8.00;2.20;;;8.70;99.90;;;;;;6152567;23;20185;-94
2023/06/05 11:48:44;;;;;;;9.57;2.10;;;8.70;99.90;;;;;;6137764;23;20186;-95
2023/06/05 11:51:16;;;;;;;8.43;1.97;;;8.60;99.90;;;;;;6114893;23;20641;-95
2023/06/05 11:53:50;;;;;;;11.03;2.40;;;8.60;99.90;;;;;;6134581;23;20194;-96
2023/06/05 11:56:22;;;;;;;6.40;2.07;;;8.60;99.90;;;;;;6132857;23;20167;-96
2023/06/05 11:58:54;;;;;;;11.53;2.27;;;8.60;99.90;;;;;;6131026;23;20191;-96
2023/06/05 12:01:31;;;;;;;10.00;2.27;;;8.60;99.90;;;;;;6135185;23;20249;-96
2023/06/05 12:04:09;;;;;;;11.70;2.37;;;8.60;99.90;;;;;;6139919;23;20277;-94
2023/06/05 12:06:46;;;;;;;9.93;2.30;;;8.60;99.90;;;;;;6137152;23;20182;-96
2023/06/05 12:09:21;;;;;;;11.57;2.40;;;8.50;99.90;;;;;;6136689;23;20178;-95
2023/06/05 12:11:53;;;;;;;9.23;2.60;;;8.50;99.90;;;;;;6145017;23;20652;-95
2023/06/05 12:14:36;;;;;;;10.47;2.50;;;8.60;99.90;;;;;;6143569;23;20230;-96
2023/06/05 12:17:14;;;;;;;9.07;1.80;;;8.60;99.90;;;;;;6142965;23;20226;-96
2023/06/05 12:19:56;;;;;;;9.53;2.30;;;8.60;99.90;;;;;;6146950;23;20173;-96
2023/06/05 12:22:27;;;;;;;8.60;2.20;;;8.60;99.90;;;;;;6146609;23;20218;-93
2023/06/05 12:25:16;;;;;;;8.67;2.03;;;8.60;99.90;;;;;;6150727;23;20174;-94
2023/06/05 12:27:52;;;;;;;11.30;2.63;;;8.60;99.90;;;;;;6147403;23;20182;-93
2023/06/05 12:30:25;;;;;;;11.50;2.40;;;8.70;99.90;;;;;;6137769;23;20231;-96
2023/06/05 12:33:08;;;;;;;4.90;1.80;;;8.70;99.90;;;;;;6133233;23;20174;-94
2023/06/05 12:35:42;;;;;;;9.47;2.30;;;8.70;99.90;;;;;;6132990;23;20198;-96
2023/06/05 12:38:14;;;;;;;10.10;2.40;;;8.70;99.90;;;;;;6131644;23;20178;-96
2023/06/05 12:40:47;;;;;;;8.57;2.23;;;8.80;99.90;;;;;;6131743;23;20182;-95
2023/06/05 12:43:33;;;;;;;8.00;2.23;;;8.70;99.90;;;;;;6108321;23;20189;-96
2023/06/05 12:46:07;;;;;;;13.73;2.70;;;8.70;99.90;;;;;;6130213;23;20214;-96
2023/06/05 12:48:41;;;;;;;10.30;2.20;;;8.70;99.90;;;;;;6128389;23;20182;-96
2023/06/05 12:51:15;;;;;;;9.80;2.10;;;8.70;99.90;;;;;;6130938;23;20171;-95
2023/06/05 12:53:47;;;;;;;8.73;2.20;;;8.80;99.90;;;;;;6129583;23;20921;-96
2023/06/05 12:56:23;;;;;;;8.10;2.00;;;8.80;99.90;;;;;;6128999;23;20233;-96
2023/06/05 12:58:56;;;;;;;12.87;2.50;;;8.80;99.90;;;;;;6128696;23;20181;-96
2023/06/05 13:01:29;;;;;;;10.07;2.47;;;8.80;99.90;;;;;;6130864;23;20178;-95
2023/06/05 13:04:01;;;;;;;13.00;2.20;;;8.80;99.90;;;;;;6130916;23;20182;-96
2023/06/05 13:06:37;;;;;;;11.33;2.20;;;8.90;99.90;;;;;;6132572;23;20244;-95
2023/06/05 13:09:09;;;;;;;9.90;2.37;;;8.90;99.90;;;;;;6132124;23;20208;-96
2023/06/05 13:11:41;;;;;;;10.07;2.50;;;8.90;99.90;;;;;;6136211;23;20194;-94
2023/06/05 13:14:15;;;;;;;15.27;3.13;;;8.90;99.90;;;;;;6150897;23;20220;-96
2023/06/05 13:16:48;;;;;;;12.30;2.30;;;8.90;99.90;;;;;;6151738;23;20182;-96
2023/06/05 13:19:20;;;;;;;12.33;2.70;;;8.90;99.90;;;;;;6150870;23;20237;-96
2023/06/05 13:21:55;;;;;;;7.90;2.20;;;9.00;99.90;;;;;;6147880;23;20186;-96
2023/06/05 13:24:27;;;;;;;9.87;2.10;;;9.00;99.90;;;;;;6146227;23;20184;-95
2023/06/05 13:26:59;;;;;;;8.50;2.27;;;9.10;99.90;;;;;;6144518;23;20171;-95
2023/06/05 13:29:31;;;;;;;13.43;2.40;;;9.20;99.90;;;;;;6135338;23;20233;-96
2023/06/05 13:32:04;;;;;;;13.43;2.70;;;9.20;99.90;;;;;;6133602;23;20556;-95
2023/06/05 13:34:40;;;;;;;11.37;2.77;;;9.20;99.90;;;;;;6135210;23;20198;-95
2023/06/05 13:37:16;;;;;;;11.93;2.40;;;9.40;99.90;;;;;;6133887;23;20184;-96
2023/06/05 13:39:52;;;;;;;14.00;2.97;;;9.50;99.90;;;;;;6137134;23;20217;-96
2023/06/05 13:42:25;;;;;;;12.47;2.67;;;9.50;99.90;;;;;;6111694;23;20174;-95
2023/06/05 13:44:57;;;;;;;16.87;3.10;;;9.60;99.90;;;;;;6133157;23;20179;-95